Weather at Orlando Sun Resort Heliport [CLOSED]

Public forecast

Using degrees Fahrenheit for public forecast. Weather courtesy of forecast.io.

Closest aviation weather report (METAR) to Orlando Sun Resort Heliport

Closest report is Kissimmee Gateway Airport, 5.9 nm (10.9 km) ESE. Retrieved 2020/09/20 16:38 UTC (19 minutes ago):

KISM 201638Z 06017G25KT 10SM VCTS BKN008 28/26 A2997

Closest aviation forecast (TAF) to Orlando Sun Resort Heliport

Closest forecast is Kissimmee Gateway Airport, 5.9 nm (10.9 km) ESE. Retrieved 2020/09/20 12:27 UTC (4 hours ago):

TAF KISM 201125Z 2012/2112 01013KT P6SM VCSH SCT007 BKN022 OVC040 TEMPO 2012/2014 5SM SHRA BKN007 FM201400 03016G26KT P6SM VCSH BKN025 OVC040 FM201800 04019G28KT P6SM VCSH BKN035 BKN050 FM210000 04014G22KT P6SM BKN030